createdAt,value
2023-03-19T00:00:50.630Z,97670.00
2023-03-19T00:03:19.629Z,97669.00
2023-03-19T00:05:52.731Z,97672.00
2023-03-19T00:08:20.885Z,97667.00
2023-03-19T00:10:48.504Z,97663.00
2023-03-19T00:13:16.423Z,97661.00
2023-03-19T00:15:44.152Z,97666.00
2023-03-19T00:18:12.156Z,97660.00
2023-03-19T00:20:41.230Z,97664.00
2023-03-19T00:23:09.153Z,97663.00
2023-03-19T00:25:37.240Z,97665.00
2023-03-19T00:28:05.064Z,97667.00
2023-03-19T00:30:32.715Z,97668.00
2023-03-19T00:33:00.514Z,97665.00
2023-03-19T00:35:28.405Z,97672.00
2023-03-19T00:37:57.849Z,97671.00
2023-03-19T00:40:25.502Z,97673.00
2023-03-19T00:42:53.125Z,97673.00
2023-03-19T00:45:20.737Z,97681.00
2023-03-19T00:47:48.411Z,97675.00
2023-03-19T00:50:16.221Z,97679.00
2023-03-19T00:52:43.817Z,97676.00
2023-03-19T00:55:12.834Z,97681.00
2023-03-19T00:57:40.600Z,97677.00
2023-03-19T01:00:10.750Z,97687.00
2023-03-19T01:02:38.388Z,97681.00
2023-03-19T01:05:08.027Z,97681.00
2023-03-19T01:07:35.800Z,97681.00
2023-03-19T01:10:03.456Z,97683.00
2023-03-19T01:12:32.406Z,97673.00
2023-03-19T01:15:00.029Z,97676.00
2023-03-19T01:17:27.665Z,97687.00
2023-03-19T01:19:55.402Z,97677.00
2023-03-19T01:22:23.108Z,97678.00
2023-03-19T01:24:50.896Z,97681.00
2023-03-19T01:27:18.515Z,97682.00
2023-03-19T01:29:47.513Z,97685.00
2023-03-19T01:32:15.120Z,97682.00
2023-03-19T01:34:42.962Z,97680.00
2023-03-19T01:37:10.754Z,97686.00
2023-03-19T01:39:38.404Z,97684.00
2023-03-19T01:42:06.701Z,97682.00
2023-03-19T01:44:36.410Z,97680.00
2023-03-19T01:47:09.042Z,97681.00
2023-03-19T01:49:36.894Z,97675.00
2023-03-19T01:52:07.315Z,97670.00
2023-03-19T01:54:35.358Z,97664.00
2023-03-19T01:57:08.073Z,97666.00
2023-03-19T01:59:39.914Z,97666.00
2023-03-19T02:02:13.003Z,97660.00
2023-03-19T02:04:43.079Z,97652.00
2023-03-19T02:07:12.547Z,97654.00
2023-03-19T02:09:42.000Z,97656.00
2023-03-19T02:12:10.734Z,97656.00
2023-03-19T02:14:38.388Z,97662.00
2023-03-19T02:17:08.518Z,97662.00
2023-03-19T02:19:44.507Z,97666.00
2023-03-19T02:22:13.020Z,97677.00
2023-03-19T02:24:50.464Z,97681.00
2023-03-19T02:27:19.874Z,97676.00
2023-03-19T02:29:49.349Z,97670.00
2023-03-19T02:32:17.622Z,97674.00
2023-03-19T02:34:46.037Z,97669.00
2023-03-19T02:37:17.637Z,97683.00
2023-03-19T02:39:51.341Z,97679.00
2023-03-19T02:42:22.721Z,97685.00
2023-03-19T02:44:50.729Z,97674.00
2023-03-19T02:47:18.608Z,97676.00
2023-03-19T02:49:46.694Z,97676.00
2023-03-19T02:52:14.600Z,97674.00
2023-03-19T02:54:42.620Z,97677.00
2023-03-19T02:57:10.487Z,97683.00
2023-03-19T02:59:40.032Z,97683.00
2023-03-19T03:02:08.403Z,97683.00
2023-03-19T03:04:37.137Z,97687.00
2023-03-19T03:07:05.144Z,97687.00
2023-03-19T03:09:33.101Z,97685.00
2023-03-19T03:12:01.404Z,97686.00
2023-03-19T03:14:29.785Z,97689.00
2023-03-19T03:16:59.041Z,97684.00
2023-03-19T03:19:27.212Z,97695.00
2023-03-19T03:21:55.190Z,97677.00
2023-03-19T03:24:22.992Z,97682.00
2023-03-19T03:26:50.844Z,97682.00
2023-03-19T03:29:18.775Z,97692.00
2023-03-19T03:31:46.778Z,97696.00
2023-03-19T03:34:16.089Z,97700.00
2023-03-19T03:36:43.904Z,97702.00
2023-03-19T03:39:11.877Z,97706.00
2023-03-19T03:41:39.846Z,97696.00
2023-03-19T03:44:08.559Z,97709.00
2023-03-19T03:46:36.783Z,97707.00
2023-03-19T03:49:04.702Z,97710.00
2023-03-19T03:51:34.008Z,97713.00
2023-03-19T03:54:02.370Z,97706.00
2023-03-19T03:56:30.220Z,97713.00
2023-03-19T03:58:58.037Z,97717.00
2023-03-19T04:01:25.959Z,97718.00
2023-03-19T04:03:54.394Z,97707.00
2023-03-19T04:06:24.022Z,97715.00
2023-03-19T04:08:53.191Z,97717.00
2023-03-19T04:11:21.418Z,97722.00
2023-03-19T04:13:49.245Z,97723.00
2023-03-19T04:16:17.376Z,97725.00
2023-03-19T04:18:45.270Z,97729.00
2023-03-19T04:21:14.918Z,97737.00
2023-03-19T04:23:42.786Z,97727.00
2023-03-19T04:26:12.372Z,97731.00
2023-03-19T04:28:40.339Z,97731.00
2023-03-19T04:31:09.631Z,97724.00
2023-03-19T04:33:37.980Z,97730.00
2023-03-19T04:36:06.255Z,97731.00
2023-03-19T04:38:34.110Z,97739.00
2023-03-19T04:41:02.524Z,97742.00
2023-03-19T04:43:32.328Z,97737.00
2023-03-19T04:46:00.480Z,97740.00
2023-03-19T04:48:28.435Z,97738.00
2023-03-19T04:50:57.434Z,97738.00
2023-03-19T04:53:25.602Z,97744.00
2023-03-19T04:55:53.398Z,97741.00
2023-03-19T04:58:21.776Z,97739.00
2023-03-19T05:00:51.063Z,97738.00
2023-03-19T05:03:18.953Z,97743.00
2023-03-19T05:05:46.772Z,97748.00
2023-03-19T05:08:14.698Z,97751.00
2023-03-19T05:10:42.676Z,97748.00
2023-03-19T05:13:10.498Z,97743.00
2023-03-19T05:15:38.863Z,97752.00
2023-03-19T05:18:08.701Z,97749.00
2023-03-19T05:20:37.311Z,97750.00
2023-03-19T05:23:06.390Z,97756.00
2023-03-19T05:25:35.436Z,97755.00
2023-03-19T05:28:03.527Z,97756.00
2023-03-19T05:30:32.220Z,97759.00
2023-03-19T05:33:00.851Z,97762.00
2023-03-19T05:35:30.969Z,97770.00
2023-03-19T05:37:59.222Z,97779.00
2023-03-19T05:40:27.219Z,97790.00
2023-03-19T05:42:55.042Z,97781.00
2023-03-19T05:45:22.915Z,97792.00
2023-03-19T05:47:51.118Z,97792.00
2023-03-19T05:50:19.197Z,97789.00
2023-03-19T05:52:48.425Z,97789.00
2023-03-19T05:55:17.481Z,97794.00
2023-03-19T05:57:45.351Z,97799.00
2023-03-19T06:00:14.911Z,97804.00
2023-03-19T06:02:43.082Z,97805.00
2023-03-19T06:05:12.146Z,97805.00
2023-03-19T06:07:40.049Z,97809.00
2023-03-19T06:10:10.843Z,97812.00
2023-03-19T06:12:38.641Z,97813.00
2023-03-19T06:15:07.666Z,97821.00
2023-03-19T06:17:36.179Z,97825.00
2023-03-19T06:20:04.417Z,97824.00
2023-03-19T06:22:32.332Z,97830.00
2023-03-19T06:25:00.582Z,97826.00
2023-03-19T06:27:29.792Z,97829.00
2023-03-19T06:29:57.627Z,97834.00
2023-03-19T06:32:25.754Z,97833.00
2023-03-19T06:34:55.174Z,97835.00
2023-03-19T06:37:23.196Z,97842.00
2023-03-19T06:39:51.123Z,97843.00
2023-03-19T06:42:19.281Z,97846.00
2023-03-19T06:44:48.517Z,97855.00
2023-03-19T06:47:16.531Z,97856.00
2023-03-19T06:49:44.663Z,97855.00
2023-03-19T06:52:12.469Z,97860.00
2023-03-19T06:54:40.276Z,97868.00
2023-03-19T06:57:08.226Z,97867.00
2023-03-19T06:59:36.064Z,97871.00
2023-03-19T07:02:05.675Z,97870.00
2023-03-19T07:04:33.774Z,97878.00
2023-03-19T07:07:02.636Z,97884.00
2023-03-19T07:09:30.616Z,97885.00
2023-03-19T07:11:58.397Z,97893.00
2023-03-19T07:14:26.399Z,97898.00
2023-03-19T07:16:54.283Z,97899.00
2023-03-19T07:19:23.771Z,97900.00
2023-03-19T07:21:51.616Z,97904.00
2023-03-19T07:24:19.533Z,97910.00
2023-03-19T07:26:47.896Z,97912.00
2023-03-19T07:29:15.762Z,97925.00
2023-03-19T07:31:43.661Z,97927.00
2023-03-19T07:34:11.508Z,97929.00
2023-03-19T07:36:40.711Z,97930.00
2023-03-19T07:39:08.968Z,97930.00
2023-03-19T07:41:36.797Z,97940.00
2023-03-19T07:44:04.961Z,97933.00
2023-03-19T07:46:32.838Z,97941.00
2023-03-19T07:49:00.686Z,97939.00
2023-03-19T07:51:28.406Z,97938.00
2023-03-19T07:53:57.623Z,97949.00
2023-03-19T07:56:26.765Z,97947.00
2023-03-19T07:58:54.756Z,97949.00
2023-03-19T08:01:22.648Z,97953.00
2023-03-19T08:03:50.781Z,97960.00
2023-03-19T08:06:18.812Z,97964.00
2023-03-19T08:08:47.103Z,97965.00
2023-03-19T08:11:16.473Z,97964.00
2023-03-19T08:13:44.617Z,97961.00
2023-03-19T08:16:13.596Z,97970.00
2023-03-19T08:18:41.433Z,97966.00
2023-03-19T08:21:09.366Z,97963.00
2023-03-19T08:23:37.152Z,97976.00
2023-03-19T08:26:05.230Z,97971.00
2023-03-19T08:28:34.489Z,97976.00
2023-03-19T08:31:08.173Z,97982.00
2023-03-19T08:33:36.031Z,97983.00
2023-03-19T08:36:08.845Z,97982.00
2023-03-19T08:38:36.800Z,97986.00
2023-03-19T08:41:04.782Z,97983.00
2023-03-19T08:43:36.756Z,97988.00
2023-03-19T08:46:05.248Z,97993.00
2023-03-19T08:48:33.268Z,98002.00
2023-03-19T08:51:03.125Z,97994.00
2023-03-19T08:53:32.366Z,97998.00
2023-03-19T08:56:02.106Z,97992.00
2023-03-19T08:58:30.072Z,97997.00
2023-03-19T09:01:04.431Z,98001.00
2023-03-19T09:03:32.578Z,98004.00
2023-03-19T09:06:01.665Z,98006.00
2023-03-19T09:08:31.022Z,98006.00
2023-03-19T09:10:59.706Z,98007.00
2023-03-19T09:13:27.871Z,98010.00
2023-03-19T09:15:55.990Z,98022.00
2023-03-19T09:18:26.129Z,98014.00
2023-03-19T09:20:55.207Z,98025.00
2023-03-19T09:23:23.500Z,98022.00
2023-03-19T09:25:51.724Z,98017.00
2023-03-19T09:28:19.608Z,98021.00
2023-03-19T09:30:48.907Z,98017.00
2023-03-19T09:33:17.498Z,98013.00
2023-03-19T09:35:51.130Z,98017.00
2023-03-19T09:38:19.398Z,98009.00
2023-03-19T09:40:49.064Z,98012.00
2023-03-19T09:43:36.858Z,98016.00
2023-03-19T09:46:11.310Z,98018.00
2023-03-19T09:48:47.046Z,98025.00
2023-03-19T09:51:22.722Z,98023.00
2023-03-19T09:53:55.613Z,98023.00
2023-03-19T09:56:23.596Z,98026.00
2023-03-19T09:58:52.237Z,98032.00
2023-03-19T10:01:26.666Z,98025.00
2023-03-19T10:04:14.167Z,98027.00
2023-03-19T10:06:44.007Z,98024.00
2023-03-19T10:09:27.316Z,98026.00
2023-03-19T10:12:04.791Z,98030.00
2023-03-19T10:15:02.241Z,98029.00
2023-03-19T10:17:34.132Z,98032.00
2023-03-19T10:20:06.398Z,98034.00
2023-03-19T10:22:39.288Z,98042.00
2023-03-19T10:25:12.440Z,98041.00
2023-03-19T10:27:40.721Z,98030.00
2023-03-19T10:30:16.737Z,98026.00
2023-03-19T10:32:47.089Z,98023.00
2023-03-19T10:35:21.116Z,98018.00
2023-03-19T10:37:51.207Z,98016.00
2023-03-19T10:40:25.482Z,98027.00
2023-03-19T10:43:07.202Z,98026.00
2023-03-19T10:45:38.843Z,98023.00
2023-03-19T10:48:07.448Z,98016.00
2023-03-19T10:50:38.556Z,98022.00
2023-03-19T10:53:28.836Z,98013.00
2023-03-19T10:55:58.196Z,98013.00
2023-03-19T10:58:28.092Z,98009.00
2023-03-19T11:00:59.042Z,98011.00
2023-03-19T11:03:33.013Z,98006.00
2023-03-19T11:06:17.205Z,98004.00
2023-03-19T11:08:59.336Z,97995.00
2023-03-19T11:11:33.888Z,97999.00
2023-03-19T11:14:09.273Z,97997.00
2023-03-19T11:16:52.464Z,97998.00
2023-03-19T11:19:21.997Z,97990.00
2023-03-19T11:22:08.703Z,97992.00
2023-03-19T11:24:39.821Z,97991.00
2023-03-19T11:27:08.706Z,97992.00
2023-03-19T11:29:40.664Z,97990.00
2023-03-19T11:32:25.351Z,97976.00
2023-03-19T11:34:57.661Z,97977.00
2023-03-19T11:37:32.596Z,97973.00
2023-03-19T11:40:10.218Z,97965.00
2023-03-19T11:42:57.243Z,97968.00
2023-03-19T11:45:33.864Z,97961.00
2023-03-19T11:48:22.779Z,97955.00
2023-03-19T11:50:55.265Z,97951.00
2023-03-19T11:53:28.478Z,97945.00
2023-03-19T11:56:06.313Z,97949.00
2023-03-19T11:58:55.437Z,97936.00
2023-03-19T12:01:37.066Z,97935.00
2023-03-19T12:04:22.247Z,97935.00
2023-03-19T12:06:57.193Z,97921.00
2023-03-19T12:09:30.898Z,97916.00
2023-03-19T12:12:08.725Z,97919.00
2023-03-19T12:14:48.750Z,97910.00
2023-03-19T12:17:35.857Z,97917.00
2023-03-19T12:20:23.382Z,97916.00
2023-03-19T12:23:01.117Z,97910.00
2023-03-19T12:25:59.685Z,97911.00
2023-03-19T12:28:31.777Z,97921.00
2023-03-19T12:31:20.465Z,97913.00
2023-03-19T12:33:50.696Z,97919.00
2023-03-19T12:36:22.583Z,97912.00
2023-03-19T12:38:55.019Z,97924.00
2023-03-19T12:41:25.252Z,97921.00
2023-03-19T12:43:58.109Z,97917.00
2023-03-19T12:46:29.789Z,97912.00
2023-03-19T12:49:01.155Z,97911.00
2023-03-19T12:51:35.364Z,97902.00
2023-03-19T12:54:07.299Z,97902.00
2023-03-19T12:56:41.016Z,97899.00
2023-03-19T12:59:20.147Z,97889.00
2023-03-19T13:01:52.021Z,97893.00
2023-03-19T13:04:24.645Z,97890.00
2023-03-19T13:06:57.329Z,97887.00
2023-03-19T13:09:32.813Z,97893.00
2023-03-19T13:12:05.062Z,97894.00
2023-03-19T13:14:45.490Z,97887.00
2023-03-19T13:17:21.470Z,97887.00
2023-03-19T13:19:52.691Z,97887.00
2023-03-19T13:22:22.938Z,97898.00
2023-03-19T13:24:52.215Z,97898.00
2023-03-19T13:27:22.926Z,97893.00
2023-03-19T13:30:09.176Z,97887.00
2023-03-19T13:32:41.280Z,97888.00
2023-03-19T13:35:27.678Z,97886.00
2023-03-19T13:38:00.313Z,97879.00
2023-03-19T13:40:41.142Z,97886.00
2023-03-19T13:43:28.336Z,97881.00
2023-03-19T13:46:05.561Z,97872.00
2023-03-19T13:48:38.972Z,97869.00
2023-03-19T13:51:25.766Z,97865.00
2023-03-19T13:53:54.855Z,97870.00
2023-03-19T13:56:30.091Z,97876.00
2023-03-19T13:59:34.140Z,97870.00
2023-03-19T14:02:04.337Z,97863.00
2023-03-19T14:04:33.902Z,97857.00
2023-03-19T14:07:13.560Z,97860.00
2023-03-19T14:09:43.441Z,97862.00
2023-03-19T14:12:24.320Z,97856.00
2023-03-19T14:14:55.883Z,97860.00
2023-03-19T14:17:27.475Z,97859.00
2023-03-19T14:19:55.997Z,97849.00
2023-03-19T14:22:38.125Z,97844.00
2023-03-19T14:25:17.977Z,97851.00
2023-03-19T14:27:48.370Z,97847.00
2023-03-19T14:30:27.781Z,97849.00
2023-03-19T14:33:02.370Z,97848.00
2023-03-19T14:35:34.584Z,97847.00
2023-03-19T14:38:03.008Z,97851.00
2023-03-19T14:40:44.054Z,97850.00
2023-03-19T14:43:22.238Z,97856.00
2023-03-19T14:45:58.748Z,97850.00
2023-03-19T14:48:56.218Z,97854.00
2023-03-19T14:51:51.023Z,97846.00
2023-03-19T14:54:26.721Z,97846.00
2023-03-19T14:56:57.471Z,97849.00
2023-03-19T14:59:25.187Z,97844.00
2023-03-19T15:01:55.129Z,97848.00
2023-03-19T15:04:27.236Z,97844.00
2023-03-19T15:07:01.010Z,97847.00
2023-03-19T15:09:31.760Z,97844.00
2023-03-19T15:12:35.267Z,97843.00
2023-03-19T15:15:36.043Z,97842.00
2023-03-19T15:18:06.268Z,97843.00
2023-03-19T15:20:38.253Z,97840.00
2023-03-19T15:23:23.463Z,97843.00
2023-03-19T15:25:56.931Z,97836.00
2023-03-19T15:28:26.447Z,97830.00
2023-03-19T15:31:14.131Z,97832.00
2023-03-19T15:33:47.494Z,97830.00
2023-03-19T15:36:19.921Z,97836.00
2023-03-19T15:38:54.840Z,97828.00
2023-03-19T15:41:24.561Z,97821.00
2023-03-19T15:43:53.013Z,97824.00
2023-03-19T15:46:25.592Z,97826.00
2023-03-19T15:48:58.612Z,97818.00
2023-03-19T15:51:27.844Z,97821.00
2023-03-19T15:53:57.165Z,97817.00
2023-03-19T15:56:25.491Z,97814.00
2023-03-19T15:58:56.236Z,97818.00
2023-03-19T16:01:24.297Z,97817.00
2023-03-19T16:03:57.391Z,97812.00
2023-03-19T16:06:28.649Z,97814.00
2023-03-19T16:09:13.498Z,97818.00
2023-03-19T16:11:44.356Z,97817.00
2023-03-19T16:14:20.886Z,97817.00
2023-03-19T16:16:49.738Z,97815.00
2023-03-19T16:19:35.892Z,97816.00
2023-03-19T16:22:11.556Z,97820.00
2023-03-19T16:24:42.704Z,97819.00
2023-03-19T16:27:15.207Z,97823.00
2023-03-19T16:29:44.357Z,97828.00
2023-03-19T16:32:21.257Z,97828.00
2023-03-19T16:34:51.837Z,97826.00
2023-03-19T16:37:41.778Z,97836.00
2023-03-19T16:40:40.800Z,97832.00
2023-03-19T16:43:14.944Z,97837.00
2023-03-19T16:45:43.289Z,97845.00
2023-03-19T16:48:10.996Z,97844.00
2023-03-19T16:50:40.968Z,97850.00
2023-03-19T16:53:21.842Z,97854.00
2023-03-19T16:55:51.769Z,97853.00
2023-03-19T16:58:21.681Z,97858.00
2023-03-19T17:00:49.361Z,97856.00
2023-03-19T17:03:19.081Z,97860.00
2023-03-19T17:05:48.376Z,97866.00
2023-03-19T17:08:16.601Z,97864.00
2023-03-19T17:10:48.531Z,97866.00
2023-03-19T17:13:20.767Z,97876.00
2023-03-19T17:15:50.362Z,97875.00
2023-03-19T17:18:22.555Z,97872.00
2023-03-19T17:20:53.282Z,97874.00
2023-03-19T17:23:24.366Z,97877.00
2023-03-19T17:25:52.534Z,97890.00
2023-03-19T17:28:21.864Z,97891.00
2023-03-19T17:30:50.529Z,97889.00
2023-03-19T17:33:23.700Z,97900.00
2023-03-19T17:35:52.174Z,97897.00
2023-03-19T17:38:20.994Z,97900.00
2023-03-19T17:40:48.920Z,97903.00
2023-03-19T17:43:16.554Z,97909.00
2023-03-19T17:45:48.444Z,97912.00
2023-03-19T17:48:21.445Z,97913.00
2023-03-19T17:50:50.115Z,97908.00
2023-03-19T17:53:18.818Z,97914.00
2023-03-19T17:55:47.382Z,97918.00
2023-03-19T17:58:17.593Z,97917.00
2023-03-19T18:00:47.569Z,97947.00
2023-03-19T18:03:17.373Z,97946.00
2023-03-19T18:05:45.261Z,97956.00
2023-03-19T18:08:15.645Z,97957.00
2023-03-19T18:10:43.801Z,97968.00
2023-03-19T18:14:04.537Z,97968.00
2023-03-19T18:16:33.892Z,97973.00
2023-03-19T18:19:02.796Z,97973.00
2023-03-19T18:21:31.124Z,97978.00
2023-03-19T18:23:59.034Z,97972.00
2023-03-19T18:26:27.009Z,97977.00
2023-03-19T18:28:54.599Z,97981.00
2023-03-19T18:31:25.324Z,97980.00
2023-03-19T18:33:57.099Z,97977.00
2023-03-19T18:36:26.846Z,97985.00
2023-03-19T18:38:55.063Z,97986.00
2023-03-19T18:41:24.496Z,97985.00
2023-03-19T18:43:52.573Z,97987.00
2023-03-19T18:46:23.845Z,97990.00
2023-03-19T18:49:02.616Z,97998.00
2023-03-19T18:51:30.583Z,97996.00
2023-03-19T18:53:58.366Z,97992.00
2023-03-19T18:56:28.667Z,97996.00
2023-03-19T18:58:58.580Z,98001.00
2023-03-19T19:01:27.823Z,98007.00
2023-03-19T19:03:56.361Z,98008.00
2023-03-19T19:06:45.993Z,98010.00
2023-03-19T19:09:14.574Z,98017.00
2023-03-19T19:11:45.461Z,98021.00
2023-03-19T19:14:19.442Z,98026.00
2023-03-19T19:16:47.995Z,98037.00
2023-03-19T19:19:18.310Z,98032.00
2023-03-19T19:21:47.505Z,98040.00
2023-03-19T19:24:15.266Z,98035.00
2023-03-19T19:26:45.067Z,98043.00
2023-03-19T19:29:18.452Z,98039.00
2023-03-19T19:31:46.315Z,98051.00
2023-03-19T19:34:15.624Z,98056.00
2023-03-19T19:36:43.604Z,98063.00
2023-03-19T19:39:13.027Z,98051.00
2023-03-19T19:41:43.825Z,98060.00
2023-03-19T19:44:17.502Z,98058.00
2023-03-19T19:46:45.387Z,98056.00
2023-03-19T19:49:14.166Z,98052.00
2023-03-19T19:51:41.925Z,98051.00
2023-03-19T19:54:09.806Z,98056.00
2023-03-19T19:56:39.158Z,98057.00
2023-03-19T19:59:08.745Z,98062.00
2023-03-19T20:01:36.760Z,98059.00
2023-03-19T20:04:05.502Z,98072.00
2023-03-19T20:06:33.471Z,98058.00
2023-03-19T20:09:01.141Z,98064.00
2023-03-19T20:11:28.892Z,98062.00
2023-03-19T20:13:57.862Z,98072.00
2023-03-19T20:16:27.205Z,98068.00
2023-03-19T20:18:55.351Z,98073.00
2023-03-19T20:21:23.762Z,98078.00
2023-03-19T20:23:55.099Z,98078.00
2023-03-19T20:26:25.198Z,98071.00
2023-03-19T20:28:54.399Z,98064.00
2023-03-19T20:31:27.219Z,98066.00
2023-03-19T20:33:54.982Z,98076.00
2023-03-19T20:36:22.885Z,98066.00
2023-03-19T20:38:50.938Z,98066.00
2023-03-19T20:41:21.198Z,98073.00
2023-03-19T20:43:49.433Z,98069.00
2023-03-19T20:46:19.467Z,98077.00
2023-03-19T20:48:48.973Z,98078.00
2023-03-19T20:51:21.480Z,98080.00
2023-03-19T20:53:51.237Z,98079.00
2023-03-19T20:56:21.264Z,98081.00
2023-03-19T20:58:49.455Z,98083.00
2023-03-19T21:01:17.903Z,98091.00
2023-03-19T21:03:46.017Z,98095.00
2023-03-19T21:06:18.561Z,98088.00
2023-03-19T21:08:48.583Z,98092.00
2023-03-19T21:11:18.915Z,98095.00
2023-03-19T21:13:47.999Z,98091.00
2023-03-19T21:16:19.628Z,98098.00
2023-03-19T21:18:48.205Z,98098.00
2023-03-19T21:21:18.615Z,98100.00
2023-03-19T21:23:56.398Z,98101.00
2023-03-19T21:26:24.762Z,98103.00
2023-03-19T21:28:56.260Z,98101.00
2023-03-19T21:31:24.021Z,98099.00
2023-03-19T21:33:52.561Z,98103.00
2023-03-19T21:36:21.666Z,98100.00
2023-03-19T21:38:50.892Z,98104.00
2023-03-19T21:41:23.714Z,98108.00
2023-03-19T21:43:56.102Z,98106.00
2023-03-19T21:46:27.608Z,98099.00
2023-03-19T21:48:56.152Z,98100.00
2023-03-19T21:51:27.124Z,98107.00
2023-03-19T21:53:54.926Z,98095.00
2023-03-19T21:56:24.604Z,98106.00
2023-03-19T21:58:53.679Z,98101.00
2023-03-19T22:01:23.798Z,98102.00
2023-03-19T22:03:52.401Z,98095.00
2023-03-19T22:06:20.138Z,98100.00
2023-03-19T22:08:49.297Z,98091.00
2023-03-19T22:11:18.620Z,98096.00
2023-03-19T22:13:47.235Z,98093.00
2023-03-19T22:16:19.716Z,98093.00
2023-03-19T22:18:47.760Z,98096.00
2023-03-19T22:21:16.424Z,98088.00
2023-03-19T22:23:44.105Z,98091.00
2023-03-19T22:26:31.051Z,98090.00
2023-03-19T22:29:00.746Z,98098.00
2023-03-19T22:31:29.027Z,98090.00
2023-03-19T22:33:57.077Z,98098.00
2023-03-19T22:36:24.773Z,98096.00
2023-03-19T22:38:52.455Z,98097.00
2023-03-19T22:41:26.094Z,98101.00
2023-03-19T22:43:56.041Z,98106.00
2023-03-19T22:46:26.294Z,98107.00
2023-03-19T22:48:54.532Z,98110.00
2023-03-19T22:51:24.813Z,98110.00
2023-03-19T22:53:53.206Z,98106.00
2023-03-19T22:56:21.649Z,98110.00
2023-03-19T22:58:49.389Z,98109.00
2023-03-19T23:01:34.866Z,98102.00
2023-03-19T23:04:19.477Z,98098.00
2023-03-19T23:06:47.614Z,98095.00
2023-03-19T23:09:16.787Z,98098.00
2023-03-19T23:11:44.762Z,98100.00
2023-03-19T23:14:26.026Z,98104.00
2023-03-19T23:19:29.155Z,98106.00
2023-03-19T23:21:57.806Z,98103.00
2023-03-19T23:24:26.590Z,98100.00
2023-03-19T23:26:55.804Z,98104.00
2023-03-19T23:29:26.820Z,98104.00
2023-03-19T23:31:54.560Z,98107.00
2023-03-19T23:34:23.572Z,98113.00
2023-03-19T23:36:51.274Z,98103.00
2023-03-19T23:39:19.528Z,98107.00
2023-03-19T23:41:49.541Z,98091.00
2023-03-19T23:44:19.509Z,98112.00
2023-03-19T23:46:50.843Z,98111.00
2023-03-19T23:49:28.674Z,98115.00
2023-03-19T23:51:57.386Z,98123.00
2023-03-19T23:54:31.171Z,98121.00
2023-03-19T23:57:01.013Z,98126.00
2023-03-19T23:59:32.709Z,98109.00
